Terminal Aerodrome Forecast
Issued by NWS

Home | Current Version | Previous Version | Text Only | Print | Product List | Glossary On
Versions: 1 2 3 4 5 6 7 8 9 10 11 12 13 14 15 16 17 18
000
FTUS43 KGRR 160946 AAB
TAFJXN
TAF AMD
KJXN 160946Z 1610/1706 23008KT 4SM -SN OVC025
     FM161200 21005KT 4SM -SN BR OVC015
     FM162200 27005KT 5SM BR OVC015=

USA.gov is the U.S. government's official web portal to all federal, state and local government web resources and services.